Terminal Aerodrome Forecast
Issued by NWS Wilmington, OH

Current Version | Previous Version | Text Only | Print | Product List | Glossary Off
Versions: 1 2 3 4 5 6 7 8 9 10 11 12 13 14 15 16 17 18 19 20 21 22 23 24 25 26 27 28 29

332
FTUS41 KILN 261006 AAB
TAFILN
TAF AMD
KILN 261006Z 2610/2706 VRB04KT P6SM SCT250
      TEMPO 2610/2612 5SM BR
     FM261600 04005KT P6SM SCT035 BKN250
     FM262100 29005KT P6SM BKN040
     FM270000 VRB04KT P6SM BKN060=

USA.gov is the U.S. government's official web portal to all federal, state and local government web resources and services.